sensor_id;sensor_type;location;lat;lon;timestamp;P1;durP1;ratioP1;P2;durP2;ratioP2
18881;SDS011;9573;50.948;11.600;2023-05-07T00:00:04;46.77;;;21.57;;
18881;SDS011;9573;50.948;11.600;2023-05-07T00:02:34;46.07;;;20.90;;
18881;SDS011;9573;50.948;11.600;2023-05-07T00:05:02;47.30;;;21.40;;
18881;SDS011;9573;50.948;11.600;2023-05-07T00:07:30;48.30;;;21.90;;
18881;SDS011;9573;50.948;11.600;2023-05-07T00:09:57;47.90;;;20.97;;
18881;SDS011;9573;50.948;11.600;2023-05-07T00:12:24;46.60;;;21.57;;
18881;SDS011;9573;50.948;11.600;2023-05-07T00:14:51;49.17;;;21.50;;
18881;SDS011;9573;50.948;11.600;2023-05-07T00:17:18;46.80;;;20.93;;
18881;SDS011;9573;50.948;11.600;2023-05-07T00:19:47;44.97;;;21.43;;
18881;SDS011;9573;50.948;11.600;2023-05-07T00:22:14;49.03;;;21.53;;
18881;SDS011;9573;50.948;11.600;2023-05-07T00:24:41;47.83;;;21.50;;
18881;SDS011;9573;50.948;11.600;2023-05-07T00:27:08;47.37;;;21.37;;
18881;SDS011;9573;50.948;11.600;2023-05-07T00:29:35;51.47;;;22.60;;
18881;SDS011;9573;50.948;11.600;2023-05-07T00:32:02;46.00;;;20.50;;
18881;SDS011;9573;50.948;11.600;2023-05-07T00:34:30;52.40;;;21.47;;
18881;SDS011;9573;50.948;11.600;2023-05-07T00:36:58;44.97;;;20.40;;
18881;SDS011;9573;50.948;11.600;2023-05-07T00:39:27;46.40;;;21.33;;
18881;SDS011;9573;50.948;11.600;2023-05-07T00:41:54;46.50;;;21.47;;
18881;SDS011;9573;50.948;11.600;2023-05-07T00:44:22;50.67;;;22.07;;
18881;SDS011;9573;50.948;11.600;2023-05-07T00:46:49;51.30;;;22.60;;
18881;SDS011;9573;50.948;11.600;2023-05-07T00:49:16;47.60;;;21.83;;
18881;SDS011;9573;50.948;11.600;2023-05-07T00:51:44;50.43;;;22.03;;
18881;SDS011;9573;50.948;11.600;2023-05-07T00:54:13;47.27;;;21.53;;
18881;SDS011;9573;50.948;11.600;2023-05-07T00:56:40;51.03;;;23.00;;
18881;SDS011;9573;50.948;11.600;2023-05-07T00:59:07;51.07;;;21.77;;
18881;SDS011;9573;50.948;11.600;2023-05-07T01:01:36;48.47;;;21.97;;
18881;SDS011;9573;50.948;11.600;2023-05-07T01:04:03;48.37;;;20.37;;
18881;SDS011;9573;50.948;11.600;2023-05-07T01:06:30;46.47;;;19.33;;
18881;SDS011;9573;50.948;11.600;2023-05-07T01:08:58;45.40;;;19.80;;
18881;SDS011;9573;50.948;11.600;2023-05-07T01:11:27;47.50;;;20.07;;
18881;SDS011;9573;50.948;11.600;2023-05-07T01:13:54;43.83;;;18.67;;
18881;SDS011;9573;50.948;11.600;2023-05-07T01:16:22;44.00;;;19.80;;
18881;SDS011;9573;50.948;11.600;2023-05-07T01:18:50;46.97;;;20.77;;
18881;SDS011;9573;50.948;11.600;2023-05-07T01:21:17;45.03;;;19.43;;
18881;SDS011;9573;50.948;11.600;2023-05-07T01:23:46;44.13;;;19.13;;
18881;SDS011;9573;50.948;11.600;2023-05-07T01:26:14;44.77;;;18.87;;
18881;SDS011;9573;50.948;11.600;2023-05-07T01:28:41;45.20;;;19.90;;
18881;SDS011;9573;50.948;11.600;2023-05-07T01:31:08;43.40;;;19.07;;
18881;SDS011;9573;50.948;11.600;2023-05-07T01:33:36;43.50;;;20.10;;
18881;SDS011;9573;50.948;11.600;2023-05-07T01:36:05;46.10;;;19.93;;
18881;SDS011;9573;50.948;11.600;2023-05-07T01:38:35;44.30;;;20.10;;
18881;SDS011;9573;50.948;11.600;2023-05-07T01:41:05;46.67;;;20.50;;
18881;SDS011;9573;50.948;11.600;2023-05-07T01:43:33;42.73;;;19.73;;
18881;SDS011;9573;50.948;11.600;2023-05-07T01:46:01;43.40;;;19.07;;
18881;SDS011;9573;50.948;11.600;2023-05-07T01:48:28;41.90;;;19.00;;
18881;SDS011;9573;50.948;11.600;2023-05-07T01:50:57;43.40;;;19.67;;
18881;SDS011;9573;50.948;11.600;2023-05-07T01:53:26;44.60;;;19.90;;
18881;SDS011;9573;50.948;11.600;2023-05-07T01:55:53;41.03;;;19.00;;
18881;SDS011;9573;50.948;11.600;2023-05-07T01:58:22;44.77;;;18.63;;
18881;SDS011;9573;50.948;11.600;2023-05-07T02:00:49;41.40;;;18.33;;
18881;SDS011;9573;50.948;11.600;2023-05-07T02:03:16;40.13;;;17.80;;
18881;SDS011;9573;50.948;11.600;2023-05-07T02:05:43;40.27;;;17.80;;
18881;SDS011;9573;50.948;11.600;2023-05-07T02:08:10;40.67;;;17.83;;
18881;SDS011;9573;50.948;11.600;2023-05-07T02:10:37;41.70;;;16.50;;
18881;SDS011;9573;50.948;11.600;2023-05-07T02:13:04;38.33;;;16.40;;
18881;SDS011;9573;50.948;11.600;2023-05-07T02:15:33;38.43;;;16.37;;
18881;SDS011;9573;50.948;11.600;2023-05-07T02:18:01;42.13;;;17.07;;
18881;SDS011;9573;50.948;11.600;2023-05-07T02:20:31;37.70;;;15.83;;
18881;SDS011;9573;50.948;11.600;2023-05-07T02:22:58;39.80;;;16.03;;
18881;SDS011;9573;50.948;11.600;2023-05-07T02:25:25;39.83;;;17.10;;
18881;SDS011;9573;50.948;11.600;2023-05-07T02:27:53;39.43;;;15.70;;
18881;SDS011;9573;50.948;11.600;2023-05-07T02:30:20;39.87;;;16.33;;
18881;SDS011;9573;50.948;11.600;2023-05-07T02:32:48;36.83;;;14.77;;
18881;SDS011;9573;50.948;11.600;2023-05-07T02:35:15;35.57;;;14.90;;
18881;SDS011;9573;50.948;11.600;2023-05-07T02:37:43;33.50;;;13.90;;
18881;SDS011;9573;50.948;11.600;2023-05-07T02:40:10;37.30;;;14.77;;
18881;SDS011;9573;50.948;11.600;2023-05-07T02:42:38;33.87;;;13.80;;
18881;SDS011;9573;50.948;11.600;2023-05-07T02:45:06;35.00;;;13.80;;
18881;SDS011;9573;50.948;11.600;2023-05-07T02:47:34;30.03;;;11.77;;
18881;SDS011;9573;50.948;11.600;2023-05-07T02:50:03;32.53;;;13.33;;
18881;SDS011;9573;50.948;11.600;2023-05-07T02:52:32;31.60;;;13.60;;
18881;SDS011;9573;50.948;11.600;2023-05-07T02:54:59;32.77;;;12.83;;
18881;SDS011;9573;50.948;11.600;2023-05-07T02:57:26;30.17;;;12.07;;
18881;SDS011;9573;50.948;11.600;2023-05-07T02:59:53;29.57;;;12.03;;
18881;SDS011;9573;50.948;11.600;2023-05-07T03:02:20;28.93;;;11.10;;
18881;SDS011;9573;50.948;11.600;2023-05-07T03:04:47;27.87;;;10.87;;
18881;SDS011;9573;50.948;11.600;2023-05-07T03:07:15;27.40;;;10.40;;
18881;SDS011;9573;50.948;11.600;2023-05-07T03:09:42;26.30;;;10.03;;
18881;SDS011;9573;50.948;11.600;2023-05-07T03:12:09;29.10;;;11.50;;
18881;SDS011;9573;50.948;11.600;2023-05-07T03:14:36;29.77;;;11.33;;
18881;SDS011;9573;50.948;11.600;2023-05-07T03:17:03;30.17;;;12.07;;
18881;SDS011;9573;50.948;11.600;2023-05-07T03:19:30;30.57;;;12.20;;
18881;SDS011;9573;50.948;11.600;2023-05-07T03:21:57;32.73;;;12.33;;
18881;SDS011;9573;50.948;11.600;2023-05-07T03:24:26;32.50;;;12.93;;
18881;SDS011;9573;50.948;11.600;2023-05-07T03:26:53;30.97;;;11.87;;
18881;SDS011;9573;50.948;11.600;2023-05-07T03:29:20;29.50;;;12.23;;
18881;SDS011;9573;50.948;11.600;2023-05-07T03:31:47;30.87;;;12.40;;
18881;SDS011;9573;50.948;11.600;2023-05-07T03:34:14;30.23;;;12.03;;
18881;SDS011;9573;50.948;11.600;2023-05-07T03:36:42;30.07;;;12.27;;
18881;SDS011;9573;50.948;11.600;2023-05-07T03:39:10;29.80;;;12.20;;
18881;SDS011;9573;50.948;11.600;2023-05-07T03:41:39;29.20;;;12.27;;
18881;SDS011;9573;50.948;11.600;2023-05-07T03:44:06;31.13;;;12.60;;
18881;SDS011;9573;50.948;11.600;2023-05-07T03:46:33;27.60;;;10.87;;
18881;SDS011;9573;50.948;11.600;2023-05-07T03:49:00;31.30;;;12.20;;
18881;SDS011;9573;50.948;11.600;2023-05-07T03:51:27;29.83;;;12.40;;
18881;SDS011;9573;50.948;11.600;2023-05-07T03:53:55;31.57;;;12.70;;
18881;SDS011;9573;50.948;11.600;2023-05-07T03:56:22;33.27;;;13.20;;
18881;SDS011;9573;50.948;11.600;2023-05-07T03:58:52;32.57;;;13.23;;
18881;SDS011;9573;50.948;11.600;2023-05-07T04:01:20;32.77;;;14.30;;
18881;SDS011;9573;50.948;11.600;2023-05-07T04:03:47;41.13;;;17.43;;
18881;SDS011;9573;50.948;11.600;2023-05-07T04:06:15;35.87;;;16.23;;
18881;SDS011;9573;50.948;11.600;2023-05-07T04:08:42;36.70;;;17.13;;
18881;SDS011;9573;50.948;11.600;2023-05-07T04:11:09;38.80;;;18.00;;
18881;SDS011;9573;50.948;11.600;2023-05-07T04:13:36;41.77;;;18.03;;
18881;SDS011;9573;50.948;11.600;2023-05-07T04:16:05;39.47;;;17.03;;
18881;SDS011;9573;50.948;11.600;2023-05-07T04:18:33;42.43;;;19.53;;
18881;SDS011;9573;50.948;11.600;2023-05-07T04:21:00;43.73;;;19.17;;
18881;SDS011;9573;50.948;11.600;2023-05-07T04:23:27;43.50;;;18.53;;
18881;SDS011;9573;50.948;11.600;2023-05-07T04:25:54;42.07;;;18.27;;
18881;SDS011;9573;50.948;11.600;2023-05-07T04:28:22;40.73;;;18.23;;
18881;SDS011;9573;50.948;11.600;2023-05-07T04:30:49;40.87;;;17.97;;
18881;SDS011;9573;50.948;11.600;2023-05-07T04:33:18;39.47;;;17.80;;
18881;SDS011;9573;50.948;11.600;2023-05-07T04:35:45;44.40;;;19.27;;
18881;SDS011;9573;50.948;11.600;2023-05-07T04:38:12;42.37;;;18.37;;
18881;SDS011;9573;50.948;11.600;2023-05-07T04:40:39;41.17;;;16.97;;
18881;SDS011;9573;50.948;11.600;2023-05-07T04:43:07;41.93;;;17.43;;
18881;SDS011;9573;50.948;11.600;2023-05-07T04:45:34;42.37;;;17.13;;
18881;SDS011;9573;50.948;11.600;2023-05-07T04:48:02;37.27;;;15.93;;
18881;SDS011;9573;50.948;11.600;2023-05-07T04:50:31;39.13;;;16.10;;
18881;SDS011;9573;50.948;11.600;2023-05-07T04:52:58;36.80;;;14.53;;
18881;SDS011;9573;50.948;11.600;2023-05-07T04:55:25;37.20;;;15.73;;
18881;SDS011;9573;50.948;11.600;2023-05-07T04:57:52;34.20;;;14.70;;
18881;SDS011;9573;50.948;11.600;2023-05-07T05:00:19;37.67;;;15.27;;
18881;SDS011;9573;50.948;11.600;2023-05-07T05:02:47;37.67;;;15.33;;
18881;SDS011;9573;50.948;11.600;2023-05-07T05:05:15;37.87;;;14.70;;
18881;SDS011;9573;50.948;11.600;2023-05-07T05:07:43;34.80;;;14.23;;
18881;SDS011;9573;50.948;11.600;2023-05-07T05:10:10;37.60;;;15.10;;
18881;SDS011;9573;50.948;11.600;2023-05-07T05:12:37;33.90;;;13.33;;
18881;SDS011;9573;50.948;11.600;2023-05-07T05:15:05;31.93;;;14.07;;
18881;SDS011;9573;50.948;11.600;2023-05-07T05:17:34;37.07;;;14.27;;
18881;SDS011;9573;50.948;11.600;2023-05-07T05:20:01;33.23;;;13.57;;
18881;SDS011;9573;50.948;11.600;2023-05-07T05:22:29;31.77;;;12.67;;
18881;SDS011;9573;50.948;11.600;2023-05-07T05:24:58;32.57;;;12.87;;
18881;SDS011;9573;50.948;11.600;2023-05-07T05:27:25;29.80;;;12.30;;
18881;SDS011;9573;50.948;11.600;2023-05-07T05:29:53;30.50;;;12.37;;
18881;SDS011;9573;50.948;11.600;2023-05-07T05:32:20;28.00;;;12.40;;
18881;SDS011;9573;50.948;11.600;2023-05-07T05:34:47;28.77;;;11.33;;
18881;SDS011;9573;50.948;11.600;2023-05-07T05:37:14;27.63;;;11.70;;
18881;SDS011;9573;50.948;11.600;2023-05-07T05:39:42;26.87;;;11.20;;
18881;SDS011;9573;50.948;11.600;2023-05-07T05:42:10;26.90;;;10.77;;
18881;SDS011;9573;50.948;11.600;2023-05-07T05:44:37;28.43;;;10.80;;
18881;SDS011;9573;50.948;11.600;2023-05-07T05:47:04;25.93;;;10.17;;
18881;SDS011;9573;50.948;11.600;2023-05-07T05:49:31;27.87;;;10.33;;
18881;SDS011;9573;50.948;11.600;2023-05-07T05:51:59;26.80;;;10.03;;
18881;SDS011;9573;50.948;11.600;2023-05-07T05:54:26;25.87;;;9.80;;
18881;SDS011;9573;50.948;11.600;2023-05-07T05:56:53;26.87;;;10.03;;
18881;SDS011;9573;50.948;11.600;2023-05-07T05:59:22;28.53;;;10.60;;
18881;SDS011;9573;50.948;11.600;2023-05-07T06:01:49;24.37;;;9.20;;
18881;SDS011;9573;50.948;11.600;2023-05-07T06:04:16;25.87;;;10.40;;
18881;SDS011;9573;50.948;11.600;2023-05-07T06:06:43;26.33;;;9.53;;
18881;SDS011;9573;50.948;11.600;2023-05-07T06:09:10;26.90;;;9.73;;
18881;SDS011;9573;50.948;11.600;2023-05-07T06:11:37;25.67;;;10.20;;
18881;SDS011;9573;50.948;11.600;2023-05-07T06:14:06;29.10;;;10.20;;
18881;SDS011;9573;50.948;11.600;2023-05-07T06:16:34;27.97;;;10.50;;
18881;SDS011;9573;50.948;11.600;2023-05-07T06:19:03;25.57;;;9.67;;
18881;SDS011;9573;50.948;11.600;2023-05-07T06:21:30;24.43;;;9.00;;
18881;SDS011;9573;50.948;11.600;2023-05-07T06:23:57;24.63;;;8.93;;
18881;SDS011;9573;50.948;11.600;2023-05-07T06:26:24;25.20;;;9.80;;
18881;SDS011;9573;50.948;11.600;2023-05-07T06:28:51;26.53;;;9.80;;
18881;SDS011;9573;50.948;11.600;2023-05-07T06:31:19;26.23;;;10.20;;
18881;SDS011;9573;50.948;11.600;2023-05-07T06:33:48;24.60;;;9.20;;
18881;SDS011;9573;50.948;11.600;2023-05-07T06:36:15;28.80;;;10.97;;
18881;SDS011;9573;50.948;11.600;2023-05-07T06:38:42;27.27;;;9.97;;
18881;SDS011;9573;50.948;11.600;2023-05-07T06:41:09;26.97;;;9.80;;
18881;SDS011;9573;50.948;11.600;2023-05-07T06:43:37;27.93;;;10.60;;
18881;SDS011;9573;50.948;11.600;2023-05-07T06:46:04;27.63;;;10.03;;
18881;SDS011;9573;50.948;11.600;2023-05-07T06:48:31;28.93;;;11.40;;
18881;SDS011;9573;50.948;11.600;2023-05-07T06:50:59;26.43;;;10.60;;
18881;SDS011;9573;50.948;11.600;2023-05-07T06:53:26;27.87;;;10.53;;
18881;SDS011;9573;50.948;11.600;2023-05-07T06:55:55;27.47;;;10.63;;
18881;SDS011;9573;50.948;11.600;2023-05-07T06:58:22;26.73;;;10.23;;
18881;SDS011;9573;50.948;11.600;2023-05-07T07:00:49;28.10;;;10.93;;
18881;SDS011;9573;50.948;11.600;2023-05-07T07:03:16;27.20;;;10.27;;
18881;SDS011;9573;50.948;11.600;2023-05-07T07:05:44;27.13;;;10.53;;
18881;SDS011;9573;50.948;11.600;2023-05-07T07:08:12;27.37;;;10.80;;
18881;SDS011;9573;50.948;11.600;2023-05-07T07:10:39;27.63;;;10.00;;
18881;SDS011;9573;50.948;11.600;2023-05-07T07:13:06;28.98;;;11.90;;
18881;SDS011;9573;50.948;11.600;2023-05-07T07:15:33;28.90;;;11.20;;
18881;SDS011;9573;50.948;11.600;2023-05-07T07:18:00;28.23;;;11.57;;
18881;SDS011;9573;50.948;11.600;2023-05-07T07:20:28;29.00;;;11.30;;
18881;SDS011;9573;50.948;11.600;2023-05-07T07:22:55;27.77;;;11.17;;
18881;SDS011;9573;50.948;11.600;2023-05-07T07:25:23;30.87;;;11.30;;
18881;SDS011;9573;50.948;11.600;2023-05-07T07:27:50;31.13;;;13.20;;
18881;SDS011;9573;50.948;11.600;2023-05-07T07:30:17;29.40;;;12.27;;
18881;SDS011;9573;50.948;11.600;2023-05-07T07:32:44;29.90;;;11.90;;
18881;SDS011;9573;50.948;11.600;2023-05-07T07:35:11;31.27;;;12.70;;
18881;SDS011;9573;50.948;11.600;2023-05-07T07:37:38;31.30;;;13.10;;
18881;SDS011;9573;50.948;11.600;2023-05-07T07:40:06;29.23;;;12.53;;
18881;SDS011;9573;50.948;11.600;2023-05-07T07:42:36;33.53;;;14.53;;
18881;SDS011;9573;50.948;11.600;2023-05-07T07:45:03;30.50;;;13.37;;
18881;SDS011;9573;50.948;11.600;2023-05-07T07:47:32;31.10;;;12.77;;
18881;SDS011;9573;50.948;11.600;2023-05-07T07:49:59;33.17;;;13.43;;
18881;SDS011;9573;50.948;11.600;2023-05-07T07:52:26;32.33;;;14.40;;
18881;SDS011;9573;50.948;11.600;2023-05-07T07:54:53;31.47;;;12.20;;
18881;SDS011;9573;50.948;11.600;2023-05-07T07:57:20;29.90;;;12.97;;
18881;SDS011;9573;50.948;11.600;2023-05-07T07:59:49;31.77;;;13.50;;
18881;SDS011;9573;50.948;11.600;2023-05-07T08:02:16;31.27;;;13.50;;
18881;SDS011;9573;50.948;11.600;2023-05-07T08:04:44;30.37;;;13.03;;
18881;SDS011;9573;50.948;11.600;2023-05-07T08:07:11;30.77;;;13.17;;
18881;SDS011;9573;50.948;11.600;2023-05-07T08:09:38;32.67;;;12.53;;
18881;SDS011;9573;50.948;11.600;2023-05-07T08:12:06;32.33;;;13.23;;
18881;SDS011;9573;50.948;11.600;2023-05-07T08:14:34;28.50;;;12.60;;
18881;SDS011;9573;50.948;11.600;2023-05-07T08:17:03;31.83;;;13.17;;
18881;SDS011;9573;50.948;11.600;2023-05-07T08:19:30;30.23;;;11.87;;
18881;SDS011;9573;50.948;11.600;2023-05-07T08:21:57;29.27;;;12.80;;
18881;SDS011;9573;50.948;11.600;2023-05-07T08:24:24;29.13;;;12.30;;
18881;SDS011;9573;50.948;11.600;2023-05-07T08:26:54;29.70;;;12.60;;
18881;SDS011;9573;50.948;11.600;2023-05-07T08:29:21;29.83;;;12.17;;
18881;SDS011;9573;50.948;11.600;2023-05-07T08:31:48;28.23;;;12.00;;
18881;SDS011;9573;50.948;11.600;2023-05-07T08:34:18;29.90;;;12.10;;
18881;SDS011;9573;50.948;11.600;2023-05-07T08:36:47;28.37;;;11.73;;
18881;SDS011;9573;50.948;11.600;2023-05-07T08:39:14;29.80;;;11.77;;
18881;SDS011;9573;50.948;11.600;2023-05-07T08:41:43;27.97;;;11.43;;
18881;SDS011;9573;50.948;11.600;2023-05-07T08:44:12;28.20;;;12.17;;
18881;SDS011;9573;50.948;11.600;2023-05-07T08:46:42;26.53;;;11.43;;
18881;SDS011;9573;50.948;11.600;2023-05-07T08:49:13;28.00;;;11.60;;
18881;SDS011;9573;50.948;11.600;2023-05-07T08:51:42;26.33;;;11.30;;
18881;SDS011;9573;50.948;11.600;2023-05-07T08:54:09;28.60;;;11.10;;
18881;SDS011;9573;50.948;11.600;2023-05-07T08:56:37;24.67;;;10.17;;
18881;SDS011;9573;50.948;11.600;2023-05-07T08:59:05;26.63;;;10.13;;
18881;SDS011;9573;50.948;11.600;2023-05-07T09:01:33;27.67;;;11.33;;
18881;SDS011;9573;50.948;11.600;2023-05-07T09:04:01;28.83;;;10.83;;
18881;SDS011;9573;50.948;11.600;2023-05-07T09:06:28;26.30;;;10.73;;
18881;SDS011;9573;50.948;11.600;2023-05-07T09:08:56;24.30;;;10.20;;
18881;SDS011;9573;50.948;11.600;2023-05-07T09:11:26;24.80;;;10.27;;
18881;SDS011;9573;50.948;11.600;2023-05-07T09:13:53;25.93;;;10.37;;
18881;SDS011;9573;50.948;11.600;2023-05-07T09:16:23;23.03;;;9.50;;
18881;SDS011;9573;50.948;11.600;2023-05-07T09:18:51;26.33;;;10.57;;
18881;SDS011;9573;50.948;11.600;2023-05-07T09:21:19;27.07;;;10.83;;
18881;SDS011;9573;50.948;11.600;2023-05-07T09:23:48;27.27;;;10.43;;
18881;SDS011;9573;50.948;11.600;2023-05-07T09:26:22;26.87;;;10.53;;
18881;SDS011;9573;50.948;11.600;2023-05-07T09:28:50;25.83;;;10.57;;
18881;SDS011;9573;50.948;11.600;2023-05-07T09:31:18;26.53;;;11.00;;
18881;SDS011;9573;50.948;11.600;2023-05-07T09:33:48;25.37;;;9.67;;
18881;SDS011;9573;50.948;11.600;2023-05-07T09:36:15;25.03;;;9.77;;
18881;SDS011;9573;50.948;11.600;2023-05-07T09:38:42;25.53;;;10.33;;
18881;SDS011;9573;50.948;11.600;2023-05-07T09:41:10;27.73;;;10.63;;
18881;SDS011;9573;50.948;11.600;2023-05-07T09:43:40;25.57;;;10.23;;
18881;SDS011;9573;50.948;11.600;2023-05-07T09:46:07;24.73;;;10.37;;
18881;SDS011;9573;50.948;11.600;2023-05-07T09:48:38;25.07;;;10.33;;
18881;SDS011;9573;50.948;11.600;2023-05-07T09:51:11;24.17;;;10.17;;
18881;SDS011;9573;50.948;11.600;2023-05-07T09:53:47;23.53;;;9.57;;
18881;SDS011;9573;50.948;11.600;2023-05-07T09:56:17;24.83;;;9.47;;
18881;SDS011;9573;50.948;11.600;2023-05-07T09:58:46;26.80;;;10.07;;
18881;SDS011;9573;50.948;11.600;2023-05-07T10:01:15;24.10;;;10.43;;
18881;SDS011;9573;50.948;11.600;2023-05-07T10:03:47;24.37;;;9.63;;
18881;SDS011;9573;50.948;11.600;2023-05-07T10:06:16;24.57;;;9.67;;
18881;SDS011;9573;50.948;11.600;2023-05-07T10:08:43;23.63;;;10.07;;
18881;SDS011;9573;50.948;11.600;2023-05-07T10:11:11;24.47;;;10.53;;
18881;SDS011;9573;50.948;11.600;2023-05-07T10:13:38;25.27;;;9.90;;
18881;SDS011;9573;50.948;11.600;2023-05-07T10:16:09;24.80;;;10.37;;
18881;SDS011;9573;50.948;11.600;2023-05-07T10:18:36;26.30;;;10.70;;
18881;SDS011;9573;50.948;11.600;2023-05-07T10:21:07;25.63;;;10.83;;
18881;SDS011;9573;50.948;11.600;2023-05-07T10:23:37;25.47;;;10.80;;
18881;SDS011;9573;50.948;11.600;2023-05-07T10:26:05;27.00;;;10.57;;
18881;SDS011;9573;50.948;11.600;2023-05-07T10:28:34;26.17;;;11.20;;
18881;SDS011;9573;50.948;11.600;2023-05-07T10:31:14;29.70;;;11.63;;
18881;SDS011;9573;50.948;11.600;2023-05-07T10:33:55;25.50;;;10.30;;
18881;SDS011;9573;50.948;11.600;2023-05-07T10:36:24;27.80;;;11.60;;
18881;SDS011;9573;50.948;11.600;2023-05-07T10:38:52;24.80;;;10.27;;
18881;SDS011;9573;50.948;11.600;2023-05-07T10:41:20;26.13;;;10.77;;
18881;SDS011;9573;50.948;11.600;2023-05-07T10:43:47;24.60;;;9.60;;
18881;SDS011;9573;50.948;11.600;2023-05-07T10:46:17;24.23;;;9.37;;
18881;SDS011;9573;50.948;11.600;2023-05-07T10:49:07;22.73;;;9.27;;
18881;SDS011;9573;50.948;11.600;2023-05-07T10:51:36;24.63;;;10.03;;
18881;SDS011;9573;50.948;11.600;2023-05-07T10:56:52;25.20;;;9.50;;
18881;SDS011;9573;50.948;11.600;2023-05-07T10:59:35;21.97;;;9.20;;
18881;SDS011;9573;50.948;11.600;2023-05-07T11:02:10;24.57;;;9.77;;
18881;SDS011;9573;50.948;11.600;2023-05-07T11:04:39;22.87;;;9.37;;
18881;SDS011;9573;50.948;11.600;2023-05-07T11:09:59;21.73;;;8.43;;
18881;SDS011;9573;50.948;11.600;2023-05-07T11:12:50;25.63;;;10.20;;
18881;SDS011;9573;50.948;11.600;2023-05-07T11:15:34;23.70;;;9.60;;
18881;SDS011;9573;50.948;11.600;2023-05-07T11:18:12;23.13;;;9.10;;
18881;SDS011;9573;50.948;11.600;2023-05-07T11:20:50;24.03;;;9.50;;
18881;SDS011;9573;50.948;11.600;2023-05-07T11:26:25;24.77;;;10.43;;
18881;SDS011;9573;50.948;11.600;2023-05-07T11:28:54;22.80;;;9.10;;
18881;SDS011;9573;50.948;11.600;2023-05-07T11:31:22;24.93;;;10.10;;
18881;SDS011;9573;50.948;11.600;2023-05-07T11:33:53;20.97;;;8.97;;
18881;SDS011;9573;50.948;11.600;2023-05-07T11:36:22;20.63;;;8.13;;
18881;SDS011;9573;50.948;11.600;2023-05-07T11:38:51;23.07;;;9.87;;
18881;SDS011;9573;50.948;11.600;2023-05-07T11:41:18;22.43;;;9.60;;
18881;SDS011;9573;50.948;11.600;2023-05-07T11:43:58;21.93;;;9.70;;
18881;SDS011;9573;50.948;11.600;2023-05-07T11:46:26;23.03;;;9.73;;
18881;SDS011;9573;50.948;11.600;2023-05-07T11:48:56;25.23;;;9.13;;
18881;SDS011;9573;50.948;11.600;2023-05-07T11:51:24;21.67;;;8.83;;
18881;SDS011;9573;50.948;11.600;2023-05-07T11:53:55;22.20;;;9.07;;
18881;SDS011;9573;50.948;11.600;2023-05-07T11:56:22;18.57;;;8.30;;
18881;SDS011;9573;50.948;11.600;2023-05-07T11:58:49;19.57;;;8.33;;
18881;SDS011;9573;50.948;11.600;2023-05-07T12:01:17;21.77;;;8.73;;
18881;SDS011;9573;50.948;11.600;2023-05-07T12:03:44;21.13;;;8.97;;
18881;SDS011;9573;50.948;11.600;2023-05-07T12:06:14;21.10;;;8.70;;
18881;SDS011;9573;50.948;11.600;2023-05-07T12:08:43;19.60;;;9.00;;
18881;SDS011;9573;50.948;11.600;2023-05-07T12:11:14;19.40;;;8.27;;
18881;SDS011;9573;50.948;11.600;2023-05-07T12:13:43;17.20;;;7.73;;
18881;SDS011;9573;50.948;11.600;2023-05-07T12:16:10;21.17;;;8.57;;
18881;SDS011;9573;50.948;11.600;2023-05-07T12:18:38;17.80;;;7.90;;
18881;SDS011;9573;50.948;11.600;2023-05-07T12:21:06;20.10;;;7.90;;
18881;SDS011;9573;50.948;11.600;2023-05-07T12:23:36;17.97;;;7.70;;
18881;SDS011;9573;50.948;11.600;2023-05-07T12:26:04;16.87;;;7.50;;
18881;SDS011;9573;50.948;11.600;2023-05-07T12:28:35;18.90;;;8.70;;
18881;SDS011;9573;50.948;11.600;2023-05-07T12:31:04;21.10;;;8.63;;
18881;SDS011;9573;50.948;11.600;2023-05-07T12:33:31;20.10;;;8.60;;
18881;SDS011;9573;50.948;11.600;2023-05-07T12:36:02;19.03;;;8.20;;
18881;SDS011;9573;50.948;11.600;2023-05-07T12:38:35;18.77;;;8.40;;
18881;SDS011;9573;50.948;11.600;2023-05-07T12:41:05;18.27;;;8.27;;
18881;SDS011;9573;50.948;11.600;2023-05-07T12:43:33;19.23;;;7.90;;
18881;SDS011;9573;50.948;11.600;2023-05-07T12:46:01;19.80;;;8.63;;
18881;SDS011;9573;50.948;11.600;2023-05-07T12:48:30;17.67;;;7.53;;
18881;SDS011;9573;50.948;11.600;2023-05-07T12:50:59;21.03;;;8.43;;
18881;SDS011;9573;50.948;11.600;2023-05-07T12:53:28;19.73;;;8.83;;
18881;SDS011;9573;50.948;11.600;2023-05-07T12:55:58;18.13;;;7.77;;
18881;SDS011;9573;50.948;11.600;2023-05-07T12:58:26;17.37;;;7.77;;
18881;SDS011;9573;50.948;11.600;2023-05-07T13:00:55;15.93;;;6.93;;
18881;SDS011;9573;50.948;11.600;2023-05-07T13:03:28;17.60;;;7.00;;
18881;SDS011;9573;50.948;11.600;2023-05-07T13:05:56;20.87;;;8.00;;
18881;SDS011;9573;50.948;11.600;2023-05-07T13:08:26;16.33;;;7.10;;
18881;SDS011;9573;50.948;11.600;2023-05-07T13:10:57;16.03;;;6.80;;
18881;SDS011;9573;50.948;11.600;2023-05-07T13:13:28;16.97;;;7.00;;
18881;SDS011;9573;50.948;11.600;2023-05-07T13:15:56;17.60;;;7.00;;
18881;SDS011;9573;50.948;11.600;2023-05-07T13:18:24;20.73;;;6.80;;
18881;SDS011;9573;50.948;11.600;2023-05-07T13:20:52;18.70;;;7.40;;
18881;SDS011;9573;50.948;11.600;2023-05-07T13:23:19;16.27;;;6.93;;
18881;SDS011;9573;50.948;11.600;2023-05-07T13:25:47;14.97;;;6.83;;
18881;SDS011;9573;50.948;11.600;2023-05-07T13:28:16;15.83;;;6.63;;
18881;SDS011;9573;50.948;11.600;2023-05-07T13:30:43;15.10;;;6.70;;
18881;SDS011;9573;50.948;11.600;2023-05-07T13:33:11;13.80;;;6.10;;
18881;SDS011;9573;50.948;11.600;2023-05-07T13:35:38;14.87;;;6.07;;
18881;SDS011;9573;50.948;11.600;2023-05-07T13:38:05;15.70;;;6.00;;
18881;SDS011;9573;50.948;11.600;2023-05-07T13:40:33;14.93;;;6.47;;
18881;SDS011;9573;50.948;11.600;2023-05-07T13:43:00;14.93;;;6.27;;
18881;SDS011;9573;50.948;11.600;2023-05-07T13:45:29;13.37;;;6.30;;
18881;SDS011;9573;50.948;11.600;2023-05-07T13:47:56;16.10;;;6.50;;
18881;SDS011;9573;50.948;11.600;2023-05-07T13:50:24;13.90;;;6.40;;
18881;SDS011;9573;50.948;11.600;2023-05-07T13:52:52;14.30;;;6.63;;
18881;SDS011;9573;50.948;11.600;2023-05-07T13:55:19;13.53;;;5.80;;
18881;SDS011;9573;50.948;11.600;2023-05-07T13:57:53;13.37;;;5.90;;
18881;SDS011;9573;50.948;11.600;2023-05-07T14:00:22;11.57;;;5.77;;
18881;SDS011;9573;50.948;11.600;2023-05-07T14:02:51;14.13;;;5.77;;
18881;SDS011;9573;50.948;11.600;2023-05-07T14:05:19;13.83;;;5.97;;
18881;SDS011;9573;50.948;11.600;2023-05-07T14:07:48;12.30;;;5.60;;
18881;SDS011;9573;50.948;11.600;2023-05-07T14:10:16;14.17;;;6.00;;
18881;SDS011;9573;50.948;11.600;2023-05-07T14:12:44;12.93;;;6.10;;
18881;SDS011;9573;50.948;11.600;2023-05-07T14:15:11;13.60;;;5.83;;
18881;SDS011;9573;50.948;11.600;2023-05-07T14:17:38;13.47;;;5.90;;
18881;SDS011;9573;50.948;11.600;2023-05-07T14:20:07;12.77;;;5.40;;
18881;SDS011;9573;50.948;11.600;2023-05-07T14:22:36;11.07;;;5.33;;
18881;SDS011;9573;50.948;11.600;2023-05-07T14:25:03;9.93;;;5.37;;
18881;SDS011;9573;50.948;11.600;2023-05-07T14:27:32;9.33;;;5.30;;
18881;SDS011;9573;50.948;11.600;2023-05-07T14:29:59;11.43;;;5.40;;
18881;SDS011;9573;50.948;11.600;2023-05-07T14:32:26;9.63;;;5.33;;
18881;SDS011;9573;50.948;11.600;2023-05-07T14:34:53;9.83;;;5.20;;
18881;SDS011;9573;50.948;11.600;2023-05-07T14:37:22;13.60;;;5.37;;
18881;SDS011;9573;50.948;11.600;2023-05-07T14:39:49;10.33;;;5.17;;